Time;durP1;ratioP1;P1;durP2;ratioP2;P2;SDS_P1;SDS_P2;PMS_P1;PMS_P2;Temp;Humidity;BMP_temperature;BMP_pressure;BME280_temperature;BME280_humidity;BME280_pressure;Samples;Min_cycle;Max_cycle;Signal;HPM_P1;HPM_P2
2022/04/12 00:00:00;;;;;;;18.87;10.77;;;;;;;;;;5016004;28;20684;-80
2022/04/12 00:02:28;;;;;;;20.13;11.10;;;3.60;99.90;;;;;;5033143;28;20180;-80
2022/04/12 00:04:54;;;;;;;23.93;12.10;;;3.60;99.90;;;;;;5031999;28;20586;-81
2022/04/12 00:07:20;;;;;;;17.23;11.43;;;5.40;99.90;;;;;;5020555;28;20647;-80
2022/04/12 00:09:46;;;;;;;19.07;11.10;;;3.60;99.90;;;;;;5032060;28;20177;-85
2022/04/12 00:12:15;;;;;;;16.53;11.03;;;3.70;99.90;;;;;;4997317;28;20707;-81
2022/04/12 00:14:40;;;;;;;20.50;10.27;;;3.50;99.90;;;;;;5019801;28;20264;-81
2022/04/12 00:19:50;;;;;;;25.10;11.47;;;3.50;99.90;;;;;;4994557;28;20266;-81
2022/04/12 00:22:16;;;;;;;16.80;10.87;;;3.50;99.90;;;;;;5027606;28;20210;-82
2022/04/12 00:24:42;;;;;;;18.63;10.83;;;3.50;99.90;;;;;;5014096;28;20261;-81
2022/04/12 00:27:07;;;;;;;17.90;10.77;;;3.50;99.90;;;;;;5015415;28;20242;-81
2022/04/12 00:29:33;;;;;;;15.10;9.20;;;3.60;99.90;;;;;;5033156;28;20188;-81
2022/04/12 00:31:59;;;;;;;17.37;10.43;;;3.60;99.90;;;;;;5033060;28;20259;-79
2022/04/12 00:34:25;;;;;;;16.80;10.30;;;3.50;99.90;;;;;;5032994;28;20279;-80
2022/04/12 00:36:51;;;;;;;18.23;10.70;;;3.60;99.90;;;;;;5032887;28;20232;-81
2022/04/12 00:39:17;;;;;;;19.23;10.77;;;3.50;99.90;;;;;;4999207;28;20236;-80
2022/04/12 00:41:43;;;;;;;17.47;10.57;;;3.50;99.90;;;;;;5015356;28;20267;-80
2022/04/12 00:44:09;;;;;;;15.27;9.83;;;3.50;99.90;;;;;;5015254;28;20204;-80
2022/04/12 00:46:35;;;;;;;18.67;10.47;;;4.00;99.90;;;;;;5015462;28;20192;-80
2022/04/12 00:49:00;;;;;;;17.47;10.30;;;3.50;99.90;;;;;;5015540;28;20187;-80
2022/04/12 00:51:28;;;;;;;16.23;10.07;;;3.50;99.90;;;;;;5032792;28;20700;-80
2022/04/12 00:53:56;;;;;;;21.77;10.63;;;4.40;99.90;;;;;;5015141;28;20251;-80
2022/04/12 00:56:22;;;;;;;15.47;10.13;;;3.50;99.90;;;;;;5015833;28;20191;-80
2022/04/12 00:58:49;;;;;;;18.33;9.40;;;3.70;99.90;;;;;;5033132;28;20217;-80
2022/04/12 01:01:15;;;;;;;17.10;10.17;;;3.60;99.90;;;;;;5032746;28;20201;-80
2022/04/12 01:03:41;;;;;;;15.87;10.03;;;3.40;99.90;;;;;;5015129;28;20649;-80
2022/04/12 01:06:07;;;;;;;16.73;9.43;;;3.70;99.90;;;;;;5032639;28;20191;-80
2022/04/12 01:08:34;;;;;;;20.00;9.37;;;3.40;99.90;;;;;;5032938;28;20173;-80
2022/04/12 01:11:06;;;;;;;14.90;9.00;;;3.30;99.90;;;;;;5032064;28;20252;-81
2022/04/12 01:13:32;;;;;;;16.43;9.30;;;3.30;99.90;;;;;;5032292;28;20218;-80
2022/04/12 01:15:58;;;;;;;15.60;10.07;;;3.30;99.90;;;;;;5032567;28;20169;-80
2022/04/12 01:18:24;;;;;;;19.47;10.00;;;;;;;;;;5032699;28;20346;-80
2022/04/12 01:20:50;;;;;;;14.03;10.00;;;3.20;99.90;;;;;;5033064;28;20177;-80
2022/04/12 01:23:23;;;;;;;14.63;9.53;;;3.20;99.90;;;;;;5014799;28;20195;-81
2022/04/12 01:25:49;;;;;;;13.60;9.40;;;3.20;99.90;;;;;;5015046;28;20188;-80
2022/04/12 01:28:14;;;;;;;16.03;9.40;;;3.20;99.90;;;;;;5032046;28;20188;-81
2022/04/12 01:30:40;;;;;;;18.77;10.17;;;3.20;99.90;;;;;;5033425;28;20180;-81
2022/04/12 01:33:06;;;;;;;15.60;9.33;;;3.20;99.90;;;;;;5036421;28;20529;-80
2022/04/12 01:35:32;;;;;;;16.57;10.13;;;3.10;99.90;;;;;;5036111;28;20226;-81
2022/04/12 01:37:58;;;;;;;13.40;8.53;;;3.00;99.90;;;;;;5036020;28;20626;-81
2022/04/12 01:40:24;;;;;;;17.50;10.07;;;4.70;99.90;;;;;;5002394;28;20273;-82
2022/04/12 01:42:52;;;;;;;13.87;8.73;;;3.00;99.90;;;;;;5036116;28;20268;-80
2022/04/12 01:45:20;;;;;;;17.17;9.67;;;3.00;99.90;;;;;;5018590;28;20248;-81
2022/04/12 01:47:46;;;;;;;14.90;9.40;;;3.50;99.90;;;;;;5018548;28;20549;-81
2022/04/12 01:50:11;;;;;;;15.90;9.53;;;3.00;99.90;;;;;;5018038;28;20262;-82
2022/04/12 01:52:37;;;;;;;14.20;9.17;;;3.00;99.90;;;;;;5036106;28;20266;-81
2022/04/12 01:55:04;;;;;;;16.27;9.40;;;4.60;99.90;;;;;;5017947;28;20175;-81
2022/04/12 01:57:29;;;;;;;15.60;9.17;;;2.90;99.90;;;;;;5018461;28;20221;-81
2022/04/12 01:59:59;;;;;;;16.80;9.57;;;2.90;99.90;;;;;;5018366;28;20180;-80
2022/04/12 02:02:25;;;;;;;16.90;8.97;;;2.80;99.90;;;;;;5036202;28;20233;-81
2022/04/12 02:04:50;;;;;;;14.87;9.47;;;4.10;99.90;;;;;;5035940;28;20185;-80
2022/04/12 02:07:16;;;;;;;16.60;9.63;;;3.00;99.90;;;;;;5035505;28;20183;-80
2022/04/12 02:09:42;;;;;;;16.97;9.63;;;2.70;99.90;;;;;;5035763;28;20188;-81
2022/04/12 02:12:08;;;;;;;17.47;8.83;;;2.60;99.90;;;;;;5017977;28;20185;-81
2022/04/12 02:14:33;;;;;;;16.53;8.97;;;2.50;99.90;;;;;;5017609;28;20590;-81
2022/04/12 02:16:59;;;;;;;15.13;9.90;;;3.10;99.90;;;;;;5035163;28;20179;-82
2022/04/12 02:19:25;;;;;;;17.63;9.50;;;2.50;99.90;;;;;;5017930;28;20216;-80
2022/04/12 02:21:50;;;;;;;18.13;9.67;;;2.40;99.90;;;;;;5017931;28;20656;-80
2022/04/12 02:24:16;;;;;;;16.67;9.77;;;2.30;99.90;;;;;;5017574;28;20231;-80
2022/04/12 02:26:42;;;;;;;15.93;9.80;;;2.30;99.90;;;;;;5035525;28;20543;-80
2022/04/12 02:29:07;;;;;;;15.57;10.20;;;3.80;99.90;;;;;;5017555;28;20211;-80
2022/04/12 02:31:33;;;;;;;22.20;10.63;;;2.30;99.90;;;;;;5017752;28;20208;-81
2022/04/12 02:33:59;;;;;;;19.43;9.67;;;2.30;99.90;;;;;;5035343;28;20183;-81
2022/04/12 02:36:25;;;;;;;18.67;10.30;;;3.50;99.90;;;;;;5017376;28;20182;-81
2022/04/12 02:38:51;;;;;;;20.60;10.60;;;2.30;99.90;;;;;;5017449;28;20696;-81
2022/04/12 02:41:16;;;;;;;17.73;10.30;;;2.30;99.90;;;;;;5017221;28;20177;-81
2022/04/12 02:43:42;;;;;;;20.90;10.47;;;2.20;99.90;;;;;;5035157;28;20703;-80
2022/04/12 02:46:07;;;;;;;14.93;9.70;;;2.20;99.90;;;;;;5016909;28;20172;-81
2022/04/12 02:48:33;;;;;;;18.50;10.47;;;2.20;99.90;;;;;;5001072;28;20196;-80
2022/04/12 02:50:59;;;;;;;22.67;11.10;;;2.30;99.90;;;;;;5017399;28;20290;-81
2022/04/12 02:53:24;;;;;;;19.63;11.80;;;2.10;99.90;;;;;;5034472;28;20646;-80
2022/04/12 02:55:50;;;;;;;21.80;12.17;;;2.10;99.90;;;;;;5035032;28;20174;-80
2022/04/12 02:58:15;;;;;;;23.30;12.27;;;2.10;99.90;;;;;;5000471;28;20217;-80
2022/04/12 03:00:41;;;;;;;24.93;12.90;;;2.60;99.90;;;;;;5034884;28;20186;-80
2022/04/12 03:03:07;;;;;;;26.97;14.53;;;2.10;99.90;;;;;;5016903;28;20181;-80
2022/04/12 03:05:34;;;;;;;23.90;15.20;;;2.70;99.90;;;;;;5000893;28;20178;-79
2022/04/12 03:07:59;;;;;;;27.63;15.50;;;2.20;99.90;;;;;;5034803;28;20264;-81
2022/04/12 03:10:25;;;;;;;31.07;16.83;;;3.80;99.90;;;;;;5017027;28;20260;-79
2022/04/12 03:12:51;;;;;;;28.10;15.87;;;2.20;99.90;;;;;;5016778;28;20217;-79
2022/04/12 03:15:17;;;;;;;27.60;16.23;;;2.30;99.90;;;;;;5034457;28;20195;-78
2022/04/12 03:17:42;;;;;;;28.93;17.13;;;2.40;99.90;;;;;;5034496;28;20216;-80
2022/04/12 03:20:09;;;;;;;31.27;16.80;;;2.40;99.90;;;;;;5016944;28;20650;-81
2022/04/12 03:22:35;;;;;;;29.50;17.70;;;2.40;99.90;;;;;;5034669;28;20186;-80
2022/04/12 03:25:01;;;;;;;36.17;16.20;;;2.50;99.90;;;;;;5016766;28;20187;-80
2022/04/12 03:27:27;;;;;;;27.27;16.37;;;2.50;99.90;;;;;;5016297;28;20178;-81
2022/04/12 03:29:53;;;;;;;29.90;15.97;;;2.60;99.90;;;;;;5000797;28;20691;-81
2022/04/12 03:32:19;;;;;;;28.10;16.83;;;2.50;99.90;;;;;;5033671;28;20185;-80
2022/04/12 03:34:45;;;;;;;26.17;15.70;;;2.60;99.90;;;;;;5034237;28;20188;-81
2022/04/12 03:37:11;;;;;;;29.67;17.20;;;3.40;99.90;;;;;;5033962;28;20182;-81
2022/04/12 03:39:37;;;;;;;30.77;17.67;;;2.60;99.90;;;;;;5033802;28;20209;-81
2022/04/12 03:42:04;;;;;;;32.53;19.10;;;2.60;99.90;;;;;;5016365;28;20181;-82
2022/04/12 03:44:31;;;;;;;36.33;20.57;;;2.60;99.90;;;;;;5016563;28;20180;-81
2022/04/12 03:46:57;;;;;;;35.10;20.20;;;2.60;99.90;;;;;;5034076;28;20192;-81
2022/04/12 03:49:23;;;;;;;31.07;16.80;;;;;;;;;;4999631;28;20209;-81
2022/04/12 03:51:48;;;;;;;24.97;15.07;;;2.70;99.90;;;;;;5016201;28;20193;-82
2022/04/12 03:54:14;;;;;;;31.97;16.30;;;2.70;99.90;;;;;;5015811;28;20183;-80
2022/04/12 03:56:41;;;;;;;27.00;14.73;;;3.00;99.90;;;;;;5025750;28;20204;-80
2022/04/12 03:59:07;;;;;;;25.43;14.23;;;2.80;99.90;;;;;;5047736;28;20202;-80
2022/04/12 04:01:32;;;;;;;22.00;13.40;;;3.10;99.90;;;;;;5029360;28;20242;-80
2022/04/12 04:04:01;;;;;;;28.87;14.90;;;3.00;99.90;;;;;;5046983;28;20303;-79
2022/04/12 04:06:26;;;;;;;22.27;12.83;;;2.50;99.90;;;;;;5035021;28;20209;-81
2022/04/12 04:08:52;;;;;;;21.97;12.93;;;2.40;99.90;;;;;;5016016;28;20258;-81
2022/04/12 04:11:18;;;;;;;22.80;13.10;;;2.30;99.90;;;;;;5033406;28;20179;-81
2022/04/12 04:13:44;;;;;;;23.30;14.40;;;2.30;99.90;;;;;;4999149;28;20620;-81
2022/04/12 04:16:10;;;;;;;25.90;14.83;;;2.30;99.90;;;;;;5015672;28;20612;-81
2022/04/12 04:18:35;;;;;;;29.47;14.97;;;2.30;99.90;;;;;;5015621;28;20248;-80
2022/04/12 04:21:02;;;;;;;34.10;15.87;;;2.20;99.90;;;;;;5015329;28;20184;-80
2022/04/12 04:23:28;;;;;;;34.13;17.27;;;2.20;99.90;;;;;;5032974;28;20218;-81
2022/04/12 04:25:53;;;;;;;52.10;21.77;;;2.30;99.90;;;;;;5033192;28;20182;-80
2022/04/12 04:28:22;;;;;;;39.03;18.37;;;2.20;99.90;;;;;;5015332;28;20190;-81
2022/04/12 04:30:49;;;;;;;52.03;18.97;;;2.20;99.90;;;;;;5033301;28;20227;-81
2022/04/12 04:33:19;;;;;;;39.07;17.53;;;3.00;99.90;;;;;;5015025;28;20610;-81
2022/04/12 04:35:46;;;;;;;31.63;15.93;;;2.30;99.90;;;;;;5033011;28;20189;-80
2022/04/12 04:38:11;;;;;;;29.40;16.10;;;2.90;99.90;;;;;;5033077;28;20215;-80
2022/04/12 04:40:37;;;;;;;50.43;26.93;;;2.50;99.90;;;;;;5015155;28;20235;-80
2022/04/12 04:43:03;;;;;;;61.97;30.53;;;2.50;99.90;;;;;;5032662;28;20178;-81
2022/04/12 04:45:29;;;;;;;33.60;18.03;;;2.50;99.90;;;;;;5032691;28;20614;-80
2022/04/12 04:47:59;;;;;;;39.23;16.17;;;2.50;99.90;;;;;;5033723;28;20193;-80
2022/04/12 04:50:30;;;;;;;36.13;17.03;;;2.70;99.90;;;;;;5040422;28;20237;-82
2022/04/12 04:52:57;;;;;;;34.83;16.90;;;2.50;99.90;;;;;;5017617;28;20638;-80
2022/04/12 04:55:23;;;;;;;32.40;17.13;;;3.90;99.90;;;;;;5012862;28;20605;-82
2022/04/12 04:57:53;;;;;;;35.53;16.10;;;2.40;99.90;;;;;;4989605;28;20209;-82
2022/04/12 05:00:20;;;;;;;28.77;15.40;;;2.20;99.90;;;;;;5004206;28;20363;-81
2022/04/12 05:02:49;;;;;;;39.03;19.43;;;2.40;99.90;;;;;;5007347;28;20299;-80
2022/04/12 05:05:16;;;;;;;41.10;17.93;;;2.40;99.90;;;;;;5017852;28;20180;-80
2022/04/12 05:07:52;;;;;;;40.43;15.93;;;2.50;99.90;;;;;;4995260;28;20652;-82
2022/04/12 05:10:28;;;;;;;27.13;15.40;;;2.50;99.90;;;;;;5027318;28;20973;-85
2022/04/12 05:12:55;;;;;;;23.90;14.33;;;2.70;99.90;;;;;;5030850;28;20650;-86
2022/04/12 05:15:21;;;;;;;28.80;14.37;;;2.80;99.90;;;;;;5011939;28;20224;-82
2022/04/12 05:17:50;;;;;;;24.87;14.17;;;3.00;99.90;;;;;;4991813;28;20287;-81
2022/04/12 05:20:16;;;;;;;25.07;13.87;;;3.10;99.90;;;;;;4997757;28;20305;-80
2022/04/12 05:22:41;;;;;;;22.43;13.90;;;3.20;99.90;;;;;;5036024;28;20253;-80
2022/04/12 05:25:08;;;;;;;25.43;14.53;;;3.30;99.90;;;;;;5001961;28;20220;-79
2022/04/12 05:27:35;;;;;;;25.37;14.80;;;3.30;99.90;;;;;;5018084;28;20180;-81
2022/04/12 05:30:03;;;;;;;25.43;14.27;;;3.40;99.90;;;;;;5035628;28;20176;-80
2022/04/12 05:32:29;;;;;;;27.17;15.07;;;3.50;99.90;;;;;;5035532;28;20235;-80
2022/04/12 05:34:55;;;;;;;25.10;14.97;;;3.60;99.90;;;;;;5001645;28;20255;-80
2022/04/12 05:37:21;;;;;;;21.77;14.03;;;4.00;99.90;;;;;;5035407;28;20179;-80
2022/04/12 05:39:46;;;;;;;24.40;14.73;;;3.70;99.90;;;;;;5018073;28;20207;-80
2022/04/12 05:42:12;;;;;;;26.23;13.77;;;3.80;99.90;;;;;;5001586;28;20604;-79
2022/04/12 05:44:38;;;;;;;26.63;15.63;;;3.80;99.90;;;;;;5035743;28;20247;-80
2022/04/12 05:47:04;;;;;;;28.43;14.13;;;3.90;99.90;;;;;;5035365;28;20225;-80
2022/04/12 05:49:31;;;;;;;34.77;14.43;;;4.10;99.90;;;;;;5018114;28;20176;-79
2022/04/12 05:51:57;;;;;;;27.07;14.57;;;4.10;99.90;;;;;;5018093;28;20187;-80
2022/04/12 05:54:24;;;;;;;22.50;13.77;;;4.30;99.90;;;;;;5035531;28;20180;-80
2022/04/12 05:56:50;;;;;;;24.13;15.60;;;4.40;99.90;;;;;;5035633;28;20251;-80
2022/04/12 05:59:16;;;;;;;25.67;14.67;;;4.30;99.90;;;;;;5017148;28;20212;-79
2022/04/12 06:01:42;;;;;;;26.23;15.93;;;4.40;99.90;;;;;;5017708;28;20200;-79
2022/04/12 06:04:08;;;;;;;27.20;16.13;;;4.50;99.90;;;;;;5035554;28;20191;-80
2022/04/12 06:06:35;;;;;;;24.20;14.40;;;4.60;99.90;;;;;;5017408;28;20192;-79
2022/04/12 06:09:02;;;;;;;23.17;14.07;;;4.60;99.90;;;;;;5017948;28;20621;-80
2022/04/12 06:11:27;;;;;;;22.83;14.43;;;4.70;99.90;;;;;;5035691;28;20216;-80
2022/04/12 06:13:53;;;;;;;26.20;16.13;;;4.80;99.90;;;;;;4996577;28;1112545;-79
2022/04/12 06:20:17;;;;;;;26.90;15.13;;;2.80;99.90;;;;;;5021853;28;20212;-81
2022/04/12 06:22:43;;;;;;;24.47;14.43;;;;;;;;;;5017103;28;20603;-79
2022/04/12 06:25:11;;;;;;;22.67;14.00;;;4.90;99.90;;;;;;5015589;28;20200;-79
2022/04/12 06:31:01;;;;;;;25.33;14.77;;;5.00;99.90;;;;;;5016154;28;20173;-80
2022/04/12 06:33:28;;;;;;;22.37;13.73;;;5.20;99.90;;;;;;5016271;28;20192;-79
2022/04/12 06:35:53;;;;;;;23.67;13.57;;;5.20;99.90;;;;;;5016358;28;20331;-80
2022/04/12 06:38:19;;;;;;;22.93;14.00;;;5.30;99.90;;;;;;5015105;28;20300;-81
2022/04/12 06:40:45;;;;;;;25.00;14.40;;;5.40;99.90;;;;;;5018450;28;20697;-80
2022/04/12 06:43:12;;;;;;;24.97;13.23;;;5.50;99.90;;;;;;5018433;28;20188;-80
2022/04/12 06:45:39;;;;;;;24.73;13.70;;;5.80;99.90;;;;;;5017936;28;20235;-81
2022/04/12 06:48:05;;;;;;;17.90;11.37;;;5.90;99.90;;;;;;5036380;28;20256;-80
2022/04/12 06:50:30;;;;;;;17.17;11.23;;;5.80;99.90;;;;;;5018191;28;20215;-80
2022/04/12 06:52:58;;;;;;;17.40;11.67;;;6.00;99.90;;;;;;5035681;28;20212;-80
2022/04/12 06:55:24;;;;;;;21.00;13.40;;;6.00;99.90;;;;;;5035410;28;20246;-81
2022/04/12 06:57:50;;;;;;;21.50;13.27;;;;;;;;;;5018062;28;20722;-80
2022/04/12 07:00:17;;;;;;;21.47;11.90;;;;;;;;;;5035589;28;20189;-81
2022/04/12 07:02:44;;;;;;;16.80;11.53;;;;;;;;;;5035816;28;20180;-81
2022/04/12 07:05:10;;;;;;;21.80;12.50;;;6.20;99.90;;;;;;5017814;28;20596;-81
2022/04/12 07:07:37;;;;;;;24.83;12.53;;;;;;;;;;5017747;28;20193;-80
2022/04/12 07:10:05;;;;;;;20.47;11.43;;;6.20;99.90;;;;;;5035066;28;20216;-81
2022/04/12 07:12:31;;;;;;;22.83;10.97;;;;;;;;;;5017715;28;20648;-80
2022/04/12 07:14:57;;;;;;;22.80;11.53;;;;;;;;;;5033977;28;20269;-81
2022/04/12 07:17:41;;;;;;;16.87;10.30;;;6.20;99.90;;;;;;5034730;28;20211;-80
2022/04/12 07:20:08;;;;;;;20.87;10.37;;;;;;;;;;5035149;28;20680;-80
2022/04/12 07:22:34;;;;;;;18.27;9.40;;;;;;;;;;5035034;28;20530;-80
2022/04/12 07:25:00;;;;;;;14.30;9.27;;;;;;;;;;5035118;28;20260;-80
2022/04/12 07:27:26;;;;;;;13.47;8.03;;;;;;;;;;5035084;28;20191;-80
2022/04/12 07:29:52;;;;;;;19.37;9.80;;;;;;;;;;5034618;28;20180;-79
2022/04/12 07:32:18;;;;;;;20.23;9.17;;;;;;;;;;5017712;28;20208;-79
2022/04/12 07:34:44;;;;;;;17.80;8.63;;;;;;;;;;5017673;28;20180;-80
2022/04/12 07:37:10;;;;;;;22.43;11.83;;;6.30;99.90;;;;;;5017255;28;20184;-80
2022/04/12 07:39:36;;;;;;;16.77;10.23;;;;;;;;;;5001346;28;20653;-79
2022/04/12 07:42:02;;;;;;;16.27;9.63;;;;;;;;;;5034788;28;20292;-80
2022/04/12 07:44:28;;;;;;;14.87;7.57;;;;;;;;;;5000695;28;20185;-80
2022/04/12 07:46:54;;;;;;;15.43;8.47;;;;;;;;;;5034563;28;20192;-79
2022/04/12 07:49:20;;;;;;;13.17;8.30;;;;;;;;;;5034702;28;20184;-79
2022/04/12 07:51:46;;;;;;;16.90;9.73;;;;;;;;;;5016998;28;20283;-80
2022/04/12 07:54:12;;;;;;;13.63;7.57;;;;;;;;;;5016748;28;20668;-80
2022/04/12 07:56:39;;;;;;;11.13;7.17;;;6.70;99.90;;;;;;5016688;28;20287;-79
2022/04/12 07:59:06;;;;;;;19.83;8.90;;;;;;;;;;5034400;28;20205;-79
2022/04/12 08:01:32;;;;;;;16.37;7.10;;;;;;;;;;5034377;28;20230;-80
2022/04/12 08:03:58;;;;;;;12.30;6.63;;;;;;;;;;5016593;28;20185;-80
2022/04/12 08:06:24;;;;;;;10.13;6.33;;;7.80;99.90;;;;;;5000388;28;20633;-80
2022/04/12 08:08:50;;;;;;;10.20;5.00;;;;;;;;;;5034195;28;20185;-80
2022/04/12 08:11:16;;;;;;;8.50;4.17;;;;;;;;;;5017727;28;20189;-79
2022/04/12 08:13:42;;;;;;;11.27;6.53;;;7.50;99.90;;;;;;5018349;28;20301;-80
2022/04/12 08:16:09;;;;;;;10.20;5.90;;;;;;;;;;5018737;28;20614;-79
2022/04/12 08:18:35;;;;;;;14.33;6.97;;;;;;;;;;5022162;28;20208;-81
2022/04/12 08:21:01;;;;;;;8.70;4.80;;;;;;;;;;5042108;28;20235;-80
2022/04/12 08:23:27;;;;;;;8.83;4.53;;;;;;;;;;5028662;28;20184;-80
2022/04/12 08:25:54;;;;;;;8.77;5.13;;;8.30;86.10;;;;;;5041337;28;20180;-79
2022/04/12 08:28:20;;;;;;;9.73;4.57;;;;;;;;;;5039503;28;20181;-81
2022/04/12 08:30:46;;;;;;;17.70;6.60;;;7.80;98.40;;;;;;5020167;28;20181;-82
2022/04/12 08:33:13;;;;;;;10.67;5.00;;;8.00;90.00;;;;;;5016810;28;20199;-82
2022/04/12 08:35:39;;;;;;;12.60;5.03;;;;;;;;;;5034018;28;20259;-79
2022/04/12 08:38:05;;;;;;;6.67;4.20;;;;;;;;;;5033635;28;20211;-79
2022/04/12 08:40:31;;;;;;;7.67;3.60;;;;;;;;;;5034038;28;20255;-80
2022/04/12 08:42:59;;;;;;;8.87;3.60;;;8.00;78.20;;;;;;5015951;28;20722;-80
2022/04/12 08:45:25;;;;;;;7.07;4.00;;;8.00;79.40;;;;;;5033951;28;20177;-81
2022/04/12 08:47:52;;;;;;;5.23;3.27;;;7.80;73.40;;;;;;5016018;28;20188;-80
2022/04/12 08:50:19;;;;;;;7.27;4.43;;;7.60;69.70;;;;;;5033555;28;20204;-81
2022/04/12 08:52:46;;;;;;;13.97;5.83;;;;;;;;;;5017117;28;20689;-81
2022/04/12 08:55:12;;;;;;;7.37;5.23;;;;;;;;;;5015652;28;20196;-80
2022/04/12 08:57:38;;;;;;;9.33;5.63;;;;;;;;;;5032756;28;20212;-81
2022/04/12 09:00:06;;;;;;;7.23;4.47;;;7.90;96.40;;;;;;5015206;28;20625;-80
2022/04/12 09:02:33;;;;;;;7.23;3.97;;;;;;;;;;5033168;28;20216;-80
2022/04/12 09:04:59;;;;;;;7.17;4.57;;;;;;;;;;5033101;28;20258;-80
2022/04/12 09:07:27;;;;;;;8.40;4.63;;;7.40;86.40;;;;;;5015463;28;20259;-81
2022/04/12 09:09:53;;;;;;;7.03;4.50;;;;;;;;;;5033448;28;20268;-81
2022/04/12 09:12:19;;;;;;;9.37;4.37;;;;;;;;;;5015773;28;20182;-80
2022/04/12 09:14:52;;;;;;;7.03;4.73;;;7.30;99.90;;;;;;5013474;28;20754;-80
2022/04/12 09:17:39;;;;;;;9.43;5.53;;;7.70;99.90;;;;;;5013410;28;20180;-80
2022/04/12 09:20:19;;;;;;;10.57;5.10;;;7.10;99.90;;;;;;5027319;28;20177;-79
2022/04/12 09:22:45;;;;;;;9.87;5.10;;;;;;;;;;5032938;28;20171;-80
2022/04/12 09:25:13;;;;;;;16.30;4.77;;;;;;;;;;5033353;28;20178;-80
2022/04/12 09:27:40;;;;;;;9.43;5.23;;;;;;;;;;5015694;28;20230;-80
2022/04/12 09:30:06;;;;;;;8.60;4.40;;;;;;;;;;5033020;28;20181;-80
2022/04/12 09:32:37;;;;;;;7.40;4.37;;;7.50;99.90;;;;;;5033003;28;20207;-80
2022/04/12 09:35:03;;;;;;;7.20;4.00;;;;;;;;;;5033595;28;20268;-80
2022/04/12 09:37:34;;;;;;;13.87;3.93;;;7.40;86.10;;;;;;5033152;28;20230;-80
2022/04/12 09:40:00;;;;;;;9.17;4.37;;;;;;;;;;5016130;28;20212;-79
2022/04/12 09:42:42;;;;;;;8.50;4.07;;;7.10;96.30;;;;;;5033206;28;20660;-80
2022/04/12 09:45:11;;;;;;;6.77;4.03;;;7.50;84.10;;;;;;5015204;28;20172;-80
2022/04/12 09:47:38;;;;;;;7.90;3.57;;;;;;;;;;5015630;28;20179;-80
2022/04/12 09:50:05;;;;;;;5.67;3.67;;;7.50;97.30;;;;;;5015183;28;20176;-79
2022/04/12 09:52:31;;;;;;;8.57;3.97;;;;;;;;;;5034673;28;20184;-80
2022/04/12 09:54:57;;;;;;;10.33;4.20;;;;;;;;;;5036135;28;20255;-80
2022/04/12 09:57:24;;;;;;;5.90;3.40;;;;;;;;;;5018677;28;20513;-80
2022/04/12 09:59:53;;;;;;;6.37;3.07;;;;;;;;;;5036022;28;20219;-80
2022/04/12 10:02:19;;;;;;;8.53;3.50;;;;;;;;;;5036236;28;20699;-81
2022/04/12 10:04:45;;;;;;;6.80;4.03;;;;;;;;;;5036111;28;20177;-81
2022/04/12 10:07:13;;;;;;;8.90;4.13;;;8.00;67.80;;;;;;5036099;28;20180;-80
2022/04/12 10:09:41;;;;;;;4.77;3.60;;;7.90;71.30;;;;;;5036452;28;20258;-79
2022/04/12 10:12:08;;;;;;;5.93;4.00;;;7.70;90.00;;;;;;5035895;28;20173;-80
2022/04/12 10:14:35;;;;;;;5.83;4.10;;;7.90;71.20;;;;;;5018331;28;20279;-81
2022/04/12 10:17:01;;;;;;;7.93;4.60;;;;;;;;;;5035929;28;20177;-80
2022/04/12 10:19:29;;;;;;;7.23;3.97;;;8.00;72.70;;;;;;5018183;28;20684;-82
2022/04/12 10:21:55;;;;;;;7.03;4.30;;;;;;;;;;5018360;28;20181;-80
2022/04/12 10:24:22;;;;;;;6.80;3.83;;;7.90;92.30;;;;;;5018589;28;20203;-80
2022/04/12 10:26:50;;;;;;;6.80;3.77;;;8.00;76.60;;;;;;5018393;28;20203;-80
2022/04/12 10:29:16;;;;;;;7.37;3.70;;;;;;;;;;5001358;28;20193;-80
2022/04/12 10:31:56;;;;;;;7.77;3.90;;;8.40;93.90;;;;;;5035855;28;20183;-80
2022/04/12 10:34:23;;;;;;;7.13;4.20;;;;;;;;;;5035848;28;20259;-80
2022/04/12 10:36:54;;;;;;;8.83;3.60;;;8.30;77.90;;;;;;5002229;28;20184;-82
2022/04/12 10:39:30;;;;;;;7.43;4.07;;;8.40;78.10;;;;;;5018318;28;20623;-80
2022/04/12 10:41:58;;;;;;;7.23;4.03;;;;;;;;;;5018078;28;20180;-80
2022/04/12 10:44:25;;;;;;;10.37;5.00;;;;;;;;;;5035729;28;20185;-79
2022/04/12 10:46:51;;;;;;;7.00;4.30;;;;;;;;;;5035792;28;20180;-81
2022/04/12 10:49:19;;;;;;;7.40;4.33;;;9.30;69.20;;;;;;5017830;28;20180;-80
2022/04/12 10:51:46;;;;;;;5.13;3.63;;;;;;;;;;5018002;28;20249;-80
2022/04/12 10:54:33;;;;;;;7.30;4.10;;;9.10;86.70;;;;;;5017770;28;20575;-79
2022/04/12 10:57:17;;;;;;;9.93;5.00;;;;;;;;;;5035510;28;20264;-80
2022/04/12 10:59:57;;;;;;;5.80;4.10;;;8.70;89.00;;;;;;5035157;28;20208;-79
2022/04/12 11:02:28;;;;;;;7.40;5.03;;;9.50;73.80;;;;;;5017734;28;20187;-80
2022/04/12 11:04:54;;;;;;;5.23;3.70;;;;;;;;;;5000292;28;20188;-79
2022/04/12 11:07:34;;;;;;;6.23;3.97;;;10.20;80.80;;;;;;5017712;28;20195;-80
2022/04/12 11:10:12;;;;;;;8.53;4.13;;;10.60;80.50;;;;;;5035443;28;20244;-79
2022/04/12 11:12:42;;;;;;;5.37;3.63;;;10.30;60.30;;;;;;5017464;28;20188;-80
2022/04/12 11:15:28;;;;;;;7.53;4.20;;;10.50;78.70;;;;;;5035796;28;20266;-79
2022/04/12 11:18:14;;;;;;;9.27;3.80;;;10.60;78.60;;;;;;5034990;28;20215;-80
2022/04/12 11:20:42;;;;;;;8.27;3.80;;;10.40;79.30;;;;;;5035235;28;20176;-79
2022/04/12 11:23:11;;;;;;;8.73;4.30;;;9.90;80.60;;;;;;5035203;28;20200;-79
2022/04/12 11:25:51;;;;;;;6.43;3.80;;;9.30;84.60;;;;;;5018202;28;20189;-80
2022/04/12 11:28:25;;;;;;;7.60;3.70;;;9.20;64.00;;;;;;5017355;28;20180;-80
2022/04/12 11:31:00;;;;;;;4.77;3.43;;;;;;;;;;5035133;28;20637;-80
2022/04/12 11:33:28;;;;;;;7.40;4.20;;;10.00;62.20;;;;;;5018032;28;20187;-79
2022/04/12 11:35:56;;;;;;;7.60;3.57;;;10.30;60.80;;;;;;5033888;28;20535;-79
2022/04/12 11:38:22;;;;;;;6.50;3.77;;;10.90;76.20;;;;;;5034769;28;20230;-80
2022/04/12 11:40:49;;;;;;;7.80;4.00;;;10.90;82.50;;;;;;5034547;28;20180;-80
2022/04/12 11:43:24;;;;;;;8.70;3.73;;;10.40;54.70;;;;;;5033688;28;20177;-81
2022/04/12 11:45:56;;;;;;;6.37;3.30;;;10.60;74.20;;;;;;5033914;28;20175;-80
2022/04/12 11:48:21;;;;;;;3.93;3.37;;;10.10;63.40;;;;;;5033902;28;20219;-80
2022/04/12 11:50:54;;;;;;;8.77;3.47;;;10.40;76.00;;;;;;5033869;28;20208;-82
2022/04/12 11:53:21;;;;;;;5.90;3.50;;;10.90;76.30;;;;;;5015670;28;20176;-82
2022/04/12 11:55:48;;;;;;;11.70;3.97;;;;;;;;;;5014932;28;20709;-81
2022/04/12 11:58:15;;;;;;;11.13;3.73;;;11.00;60.40;;;;;;5033205;28;20669;-82
2022/04/12 12:00:41;;;;;;;6.47;4.03;;;10.60;78.40;;;;;;5033701;28;20177;-81
2022/04/12 12:03:17;;;;;;;9.17;4.67;;;10.50;74.50;;;;;;5031878;28;20214;-82
2022/04/12 12:05:44;;;;;;;12.07;4.60;;;10.40;55.30;;;;;;5033372;28;20546;-81
2022/04/12 12:08:11;;;;;;;9.80;4.43;;;10.00;65.50;;;;;;5032162;28;20181;-82
2022/04/12 12:10:37;;;;;;;8.77;4.87;;;;;;;;;;5032784;28;20540;-81
2022/04/12 12:13:07;;;;;;;5.23;3.33;;;9.40;77.50;;;;;;5015500;28;20189;-82
2022/04/12 12:15:34;;;;;;;8.73;3.67;;;9.80;77.60;;;;;;5032968;28;20183;-81
2022/04/12 12:18:06;;;;;;;5.80;3.10;;;9.70;56.70;;;;;;5032926;28;20228;-81
2022/04/12 12:20:37;;;;;;;4.83;2.83;;;9.90;75.80;;;;;;5032826;28;20179;-83
2022/04/12 12:23:08;;;;;;;4.30;3.10;;;11.40;55.40;;;;;;5014966;28;20652;-83
2022/04/12 12:25:47;;;;;;;4.60;3.17;;;10.50;60.50;;;;;;5031858;28;20189;-81
2022/04/12 12:28:14;;;;;;;4.53;2.87;;;;;;;;;;5024976;28;20191;-82
2022/04/12 12:30:40;;;;;;;4.60;3.15;;;;;;;;;;5029328;28;20183;-81
2022/04/12 12:33:06;;;;;;;8.43;3.10;;;10.70;71.50;;;;;;5028976;28;20176;-81
2022/04/12 12:35:32;;;;;;;5.47;2.60;;;10.40;71.70;;;;;;4990039;28;20522;-81
2022/04/12 12:38:09;;;;;;;8.27;3.00;;;10.80;71.40;;;;;;5021456;28;20252;-81
2022/04/12 12:40:36;;;;;;;6.57;3.28;;;11.20;69.60;;;;;;5006507;28;20203;-81
2022/04/12 12:43:09;;;;;;;8.67;3.07;;;11.40;69.60;;;;;;5020326;28;20191;-81
2022/04/12 12:45:42;;;;;;;7.07;2.80;;;11.70;54.50;;;;;;5011476;28;20187;-81
2022/04/12 12:48:11;;;;;;;6.85;2.97;;;12.40;68.40;;;;;;5013431;28;20576;-82
2022/04/12 12:50:41;;;;;;;8.30;3.25;;;11.90;68.10;;;;;;5032442;28;20629;-81
2022/04/12 12:53:09;;;;;;;9.00;3.20;;;11.80;58.50;;;;;;5013559;28;20176;-81
2022/04/12 12:55:39;;;;;;;5.47;3.55;;;11.40;68.80;;;;;;5023260;28;20181;-81
2022/04/12 12:58:08;;;;;;;4.20;2.72;;;12.20;72.30;;;;;;5030296;28;20212;-81
2022/04/12 13:00:34;;;;;;;4.38;2.97;;;12.90;69.30;;;;;;5030143;28;20629;-82
2022/04/12 13:03:00;;;;;;;10.13;3.78;;;;;;;;;;5031847;28;20233;-83
2022/04/12 13:05:26;;;;;;;6.60;3.17;;;12.80;71.20;;;;;;5014140;28;20184;-82
2022/04/12 13:07:58;;;;;;;6.35;3.47;;;13.00;67.30;;;;;;5014620;28;20180;-83
2022/04/12 13:10:25;;;;;;;6.10;3.22;;;12.00;70.60;;;;;;5031966;28;20173;-83
2022/04/12 13:12:51;;;;;;;6.78;3.38;;;;;;;;;;5031273;28;20192;-83
2022/04/12 13:15:17;;;;;;;11.15;3.72;;;11.30;73.10;;;;;;4997972;28;20228;-81